Time;durP1;ratioP1;P1;durP2;ratioP2;P2;SDS_P1;SDS_P2;PMS_P1;PMS_P2;Temp;Humidity;BMP_temperature;BMP_pressure;BME280_temperature;BME280_humidity;BME280_pressure;Samples;Min_cycle;Max_cycle;Signal;HPM_P1;HPM_P2
2024/02/03 00:01:57;;;;;;;192.32;180.32;;;8.80;99.90;;;;;;12620483;28;20060;-81
2024/02/03 00:07:58;;;;;;;170.80;160.32;;;8.90;99.90;;;;;;12585208;28;20056;-82
2024/02/03 00:14:00;;;;;;;183.30;171.80;;;8.90;99.90;;;;;;12630062;28;20517;-78
2024/02/03 00:20:03;;;;;;;178.68;167.73;;;8.90;99.90;;;;;;12627762;28;20048;-79
2024/02/03 00:26:05;;;;;;;166.05;155.68;;;9.00;99.90;;;;;;12609223;28;20044;-77
2024/02/03 00:32:07;;;;;;;175.80;164.80;;;8.90;99.90;;;;;;12626499;28;20048;-81
2024/02/03 00:38:09;;;;;;;164.10;153.63;;;9.10;99.90;;;;;;12622315;28;20059;-78
2024/02/03 00:44:11;;;;;;;175.45;164.80;;;9.00;99.90;;;;;;12601540;28;20052;-78
2024/02/03 00:50:17;;;;;;;173.85;163.27;;;9.00;99.90;;;;;;12614213;28;20048;-82
2024/02/03 00:56:18;;;;;;;158.77;149.07;;;9.00;99.90;;;;;;12585806;28;20052;-80
2024/02/03 01:02:20;;;;;;;165.98;155.57;;;9.10;99.90;;;;;;12586480;28;20076;-80
2024/02/03 01:08:22;;;;;;;162.80;152.90;;;9.10;99.90;;;;;;12570146;28;20057;-78
2024/02/03 01:14:24;;;;;;;155.90;146.13;;;9.10;99.90;;;;;;12557736;28;20185;-79
2024/02/03 01:20:26;;;;;;;143.05;134.18;;;9.10;99.90;;;;;;12568584;28;20444;-85
2024/02/03 01:26:28;;;;;;;146.02;136.93;;;9.10;99.90;;;;;;12598622;28;20083;-84
2024/02/03 01:32:29;;;;;;;141.80;133.05;;;9.10;99.90;;;;;;12555714;28;20049;-85
2024/02/03 01:38:32;;;;;;;147.60;138.40;;;9.20;99.90;;;;;;12581593;28;20127;-84
2024/02/03 01:44:35;;;;;;;142.55;133.70;;;9.20;99.90;;;;;;12578087;28;20052;-85
2024/02/03 01:50:41;;;;;;;141.88;132.90;;;9.10;99.90;;;;;;12564352;28;20045;-84
2024/02/03 01:56:46;;;;;;;149.60;140.50;;;9.20;99.90;;;;;;12581458;28;20557;-84
2024/02/03 02:02:48;;;;;;;148.95;139.70;;;9.20;99.90;;;;;;12575426;28;20514;-85
2024/02/03 02:08:50;;;;;;;145.65;136.60;;;9.10;99.90;;;;;;12583371;28;20056;-84
2024/02/03 02:14:53;;;;;;;142.60;133.70;;;9.10;99.90;;;;;;12596604;28;20048;-84
2024/02/03 02:20:55;;;;;;;142.07;133.27;;;9.10;99.90;;;;;;12592409;28;20416;-82
2024/02/03 02:26:57;;;;;;;148.95;139.55;;;9.10;99.90;;;;;;12552252;28;20539;-85
2024/02/03 02:33:01;;;;;;;160.15;150.32;;;9.10;99.90;;;;;;12577546;28;20053;-86
2024/02/03 02:39:05;;;;;;;161.98;152.27;;;9.10;99.90;;;;;;12557967;28;20504;-84
2024/02/03 02:45:07;;;;;;;162.65;153.05;;;9.00;99.90;;;;;;12591036;28;20060;-85
2024/02/03 02:51:09;;;;;;;163.73;154.18;;;9.00;99.90;;;;;;12584469;28;20048;-86
2024/02/03 02:57:11;;;;;;;166.18;156.43;;;9.00;99.90;;;;;;12568355;28;20393;-84
2024/02/03 03:03:13;;;;;;;167.98;158.05;;;8.90;99.90;;;;;;12556452;28;20420;-85
2024/02/03 03:09:16;;;;;;;183.80;173.10;;;9.00;99.90;;;;;;12572881;28;20122;-86
2024/02/03 03:15:18;;;;;;;180.68;170.50;;;8.90;99.90;;;;;;12560605;28;20052;-86
2024/02/03 03:21:20;;;;;;;192.48;181.52;;;8.90;99.90;;;;;;12591163;28;20083;-84
2024/02/03 03:27:22;;;;;;;191.85;181.20;;;8.90;99.90;;;;;;12567630;28;20492;-83
2024/02/03 03:33:24;;;;;;;194.07;183.43;;;8.90;99.90;;;;;;12571318;28;20131;-85
2024/02/03 03:39:26;;;;;;;202.25;191.23;;;8.90;99.90;;;;;;12570004;28;20246;-83
2024/02/03 03:45:28;;;;;;;208.40;196.82;;;8.80;99.90;;;;;;12565344;28;20082;-81
2024/02/03 03:51:31;;;;;;;210.90;199.48;;;8.80;99.90;;;;;;12585514;28;20048;-83
2024/02/03 03:57:32;;;;;;;205.35;194.38;;;8.80;99.90;;;;;;12615107;28;20071;-84
2024/02/03 04:03:34;;;;;;;217.23;205.65;;;8.80;99.90;;;;;;12602482;28;20049;-83
2024/02/03 04:09:37;;;;;;;215.38;203.82;;;8.90;99.90;;;;;;12624297;28;20052;-83
2024/02/03 04:15:40;;;;;;;202.50;191.82;;;8.90;99.90;;;;;;12613425;28;20047;-82
2024/02/03 04:21:42;;;;;;;195.80;185.55;;;8.80;99.90;;;;;;12597988;28;20056;-82
2024/02/03 04:27:43;;;;;;;216.50;205.23;;;8.90;99.90;;;;;;12612600;28;20055;-80
2024/02/03 04:33:46;;;;;;;224.02;212.23;;;8.90;99.90;;;;;;12604274;28;20048;-82
2024/02/03 04:39:48;;;;;;;242.68;230.13;;;8.90;99.90;;;;;;12587547;28;20492;-82
2024/02/03 04:45:50;;;;;;;227.90;216.13;;;8.90;99.90;;;;;;12599896;28;20044;-83
2024/02/03 04:51:52;;;;;;;215.25;204.40;;;8.90;99.90;;;;;;12594570;28;20053;-83
2024/02/03 04:57:55;;;;;;;214.52;203.60;;;8.90;99.90;;;;;;12590775;28;20048;-84
2024/02/03 05:03:57;;;;;;;224.75;213.35;;;8.90;99.90;;;;;;12600391;28;20056;-83
2024/02/03 05:09:59;;;;;;;234.43;222.70;;;8.90;99.90;;;;;;12615990;28;20064;-80
2024/02/03 05:16:01;;;;;;;245.27;232.90;;;8.90;99.90;;;;;;12610755;28;20047;-84
2024/02/03 05:22:03;;;;;;;229.32;217.82;;;8.90;99.90;;;;;;12618051;28;20511;-83
2024/02/03 05:28:05;;;;;;;240.90;228.85;;;8.90;99.90;;;;;;12611030;28;20511;-83
2024/02/03 05:34:07;;;;;;;245.15;232.95;;;9.00;99.90;;;;;;12601966;28;20056;-83
2024/02/03 05:40:10;;;;;;;248.18;235.57;;;8.90;99.90;;;;;;12589561;28;20101;-82
2024/02/03 05:46:12;;;;;;;253.73;241.25;;;8.90;99.90;;;;;;12591909;28;20063;-85
2024/02/03 05:52:13;;;;;;;251.02;238.63;;;8.90;99.90;;;;;;12622775;28;20040;-84
2024/02/03 05:58:16;;;;;;;265.00;251.02;;;8.90;99.90;;;;;;12594535;28;20055;-80
2024/02/03 06:04:18;;;;;;;257.05;244.23;;;8.90;99.90;;;;;;12591810;28;20419;-80
2024/02/03 06:10:20;;;;;;;253.02;240.38;;;8.90;99.90;;;;;;12605774;28;20476;-81
2024/02/03 06:16:22;;;;;;;251.48;238.45;;;8.90;99.90;;;;;;12600009;28;20063;-79
2024/02/03 06:22:24;;;;;;;254.35;241.43;;;8.90;99.90;;;;;;12611892;28;20454;-81
2024/02/03 06:28:26;;;;;;;267.98;254.55;;;8.90;99.90;;;;;;12598042;28;20112;-79
2024/02/03 06:34:28;;;;;;;269.95;256.45;;;9.00;99.90;;;;;;12611730;28;20075;-79
2024/02/03 06:40:30;;;;;;;261.30;248.27;;;9.00;99.90;;;;;;12620069;28;20051;-79
2024/02/03 06:46:32;;;;;;;261.40;248.00;;;8.90;99.90;;;;;;12586263;28;20136;-80
2024/02/03 06:52:35;;;;;;;279.40;265.48;;;8.90;99.90;;;;;;12597734;28;20138;-80
2024/02/03 06:58:36;;;;;;;304.35;289.00;;;8.90;99.90;;;;;;12604060;28;20330;-80
2024/02/03 07:04:39;;;;;;;297.02;282.17;;;8.90;99.90;;;;;;12579722;28;20598;-80
2024/02/03 07:10:41;;;;;;;278.23;264.20;;;8.90;99.90;;;;;;12609704;28;20052;-80
2024/02/03 07:16:43;;;;;;;269.48;255.90;;;8.90;99.90;;;;;;12610155;28;20044;-83
2024/02/03 07:22:45;;;;;;;280.20;265.95;;;8.90;99.90;;;;;;12618637;28;20063;-82
2024/02/03 07:28:47;;;;;;;282.40;268.30;;;9.00;99.90;;;;;;12626896;28;20056;-82
2024/02/03 07:34:49;;;;;;;276.50;262.67;;;8.80;99.90;;;;;;12604234;28;20047;-82
2024/02/03 07:40:51;;;;;;;261.52;248.27;;;8.90;99.90;;;;;;12584109;28;20423;-83
2024/02/03 07:46:54;;;;;;;265.98;252.65;;;8.90;99.90;;;;;;12627525;28;20060;-82
2024/02/03 07:52:56;;;;;;;260.88;247.88;;;8.90;99.90;;;;;;12571224;28;20087;-82
2024/02/03 07:58:58;;;;;;;253.00;240.40;;;8.90;99.90;;;;;;12594697;28;20078;-82
2024/02/03 08:04:59;;;;;;;252.90;240.32;;;8.90;99.90;;;;;;12613831;28;20470;-82
2024/02/03 08:11:01;;;;;;;278.98;265.00;;;9.00;99.90;;;;;;12607921;28;20040;-84
2024/02/03 08:17:03;;;;;;;271.15;257.55;;;9.00;99.90;;;;;;12601408;28;20579;-82
2024/02/03 08:23:05;;;;;;;312.45;296.55;;;9.00;99.90;;;;;;12627540;28;20059;-79
2024/02/03 08:29:07;;;;;;;303.95;288.42;;;9.10;99.90;;;;;;12632843;28;20052;-78
2024/02/03 08:35:09;;;;;;;294.67;279.85;;;9.10;99.90;;;;;;12618588;28;20048;-80
2024/02/03 08:41:14;;;;;;;301.77;286.45;;;9.10;99.90;;;;;;12613670;28;20080;-78
2024/02/03 08:47:17;;;;;;;294.13;279.23;;;9.20;99.90;;;;;;12609909;28;20060;-79
2024/02/03 08:53:19;;;;;;;275.95;262.02;;;9.20;99.90;;;;;;12615823;28;20063;-78
2024/02/03 08:59:21;;;;;;;286.52;272.23;;;9.20;99.90;;;;;;12629935;28;20052;-79
2024/02/03 09:05:23;;;;;;;290.17;275.75;;;9.20;99.90;;;;;;12649708;28;20070;-78
2024/02/03 09:11:25;;;;;;;266.63;253.52;;;9.20;99.90;;;;;;12619690;28;20055;-79
2024/02/03 09:17:27;;;;;;;256.17;243.63;;;9.20;99.90;;;;;;12631345;28;20060;-79
2024/02/03 09:23:29;;;;;;;237.63;226.02;;;9.30;99.90;;;;;;12616886;28;20139;-80
2024/02/03 09:29:31;;;;;;;246.60;234.60;;;9.30;99.90;;;;;;12635673;28;20059;-81
2024/02/03 09:35:33;;;;;;;233.60;222.25;;;9.30;99.90;;;;;;12604985;28;20044;-83
2024/02/03 09:41:35;;;;;;;241.70;230.00;;;9.40;99.90;;;;;;12591786;28;20083;-82
2024/02/03 09:47:37;;;;;;;229.93;218.82;;;9.40;99.90;;;;;;12646742;28;20055;-82
2024/02/03 09:53:39;;;;;;;215.30;205.00;;;9.50;99.90;;;;;;12608191;28;20077;-82
2024/02/03 09:59:41;;;;;;;206.45;196.43;;;9.60;99.90;;;;;;12616282;28;20048;-82
2024/02/03 10:05:43;;;;;;;209.82;199.57;;;9.70;99.90;;;;;;12608476;28;20049;-82
2024/02/03 10:11:45;;;;;;;221.93;211.20;;;9.70;99.90;;;;;;12623919;28;20054;-83
2024/02/03 10:17:58;;;;;;;185.00;175.95;;;9.80;99.90;;;;;;12632183;28;20084;-83
2024/02/03 10:24:00;;;;;;;189.02;179.55;;;9.80;99.90;;;;;;12632364;28;20428;-83
2024/02/03 10:30:02;;;;;;;199.60;189.60;;;9.90;99.90;;;;;;12636525;28;20059;-82
2024/02/03 10:36:04;;;;;;;179.82;170.63;;;9.90;99.90;;;;;;12618006;28;20052;-83
2024/02/03 10:42:09;;;;;;;186.90;177.35;;;9.90;99.90;;;;;;12605445;28;20059;-82
2024/02/03 10:48:14;;;;;;;;;;;9.90;99.90;;;;;;12639126;28;20056;-82
2024/02/03 10:54:23;;;;;;;183.82;174.48;;;9.90;99.90;;;;;;12601722;28;20308;-84
2024/02/03 11:00:28;;;;;;;187.20;177.48;;;9.90;99.90;;;;;;12602545;28;20072;-82
2024/02/03 11:06:32;;;;;;;165.85;157.23;;;10.00;99.90;;;;;;12617765;28;20056;-82
2024/02/03 11:12:34;;;;;;;172.43;163.37;;;10.00;99.90;;;;;;12608841;28;20117;-82
2024/02/03 11:18:40;;;;;;;168.33;159.60;;;10.10;99.90;;;;;;12598424;28;20048;-82
2024/02/03 11:24:43;;;;;;;191.80;181.90;;;10.10;99.90;;;;;;12597299;28;20049;-82
2024/02/03 11:30:45;;;;;;;168.98;160.02;;;10.00;99.90;;;;;;12593355;28;20055;-83
2024/02/03 11:36:47;;;;;;;165.38;156.98;;;10.10;99.90;;;;;;12619472;28;20083;-82
2024/02/03 11:42:50;;;;;;;177.20;168.10;;;10.10;99.90;;;;;;12619635;28;20080;-82
2024/02/03 11:48:53;;;;;;;181.65;172.27;;;10.20;99.90;;;;;;12618844;28;20102;-83
2024/02/03 11:54:55;;;;;;;163.52;155.10;;;10.30;99.90;;;;;;12621237;28;20049;-82
2024/02/03 12:01:08;;;;;;;161.18;152.98;;;10.30;99.90;;;;;;12652879;28;20061;-84
2024/02/03 12:07:10;;;;;;;203.40;192.83;;;10.30;99.90;;;;;;12607309;28;20083;-82
2024/02/03 12:13:12;;;;;;;188.23;178.15;;;10.30;99.90;;;;;;12635421;28;20048;-83
2024/02/03 12:19:14;;;;;;;156.27;148.20;;;10.30;99.90;;;;;;12627433;28;20148;-82
2024/02/03 12:25:16;;;;;;;173.13;164.27;;;10.20;99.90;;;;;;12632538;28;20048;-82
2024/02/03 12:31:19;;;;;;;180.75;171.20;;;10.20;99.90;;;;;;12616291;28;20052;-82
2024/02/03 12:37:20;;;;;;;197.95;187.82;;;10.10;99.90;;;;;;12621089;28;20048;-82
2024/02/03 12:43:22;;;;;;;179.55;169.93;;;10.10;99.90;;;;;;12637744;28;20060;-83
2024/02/03 12:49:24;;;;;;;178.45;169.05;;;10.10;99.90;;;;;;12637289;28;20048;-83
2024/02/03 12:55:27;;;;;;;171.73;162.63;;;10.10;99.90;;;;;;12609006;28;20073;-82
2024/02/03 13:01:29;;;;;;;169.20;160.18;;;10.00;99.90;;;;;;12614082;28;20056;-83
2024/02/03 13:07:31;;;;;;;159.52;150.52;;;10.20;99.90;;;;;;12622312;28;20467;-79
2024/02/03 13:13:33;;;;;;;160.38;151.63;;;10.20;99.90;;;;;;12639743;28;20051;-78
2024/02/03 13:19:34;;;;;;;167.77;158.93;;;10.20;99.90;;;;;;12665207;28;20040;-79
2024/02/03 13:25:36;;;;;;;164.88;156.00;;;10.10;99.90;;;;;;12641344;28;20044;-81
2024/02/03 13:31:38;;;;;;;165.45;156.65;;;10.10;99.90;;;;;;12643773;28;20039;-82
2024/02/03 13:37:40;;;;;;;173.40;164.15;;;10.10;99.90;;;;;;12622518;28;20063;-79
2024/02/03 13:43:42;;;;;;;176.82;167.43;;;10.10;99.90;;;;;;12611797;28;20061;-78
2024/02/03 13:49:44;;;;;;;163.60;154.20;;;10.20;99.90;;;;;;12637404;28;20048;-79
2024/02/03 13:55:46;;;;;;;161.23;152.57;;;10.20;99.90;;;;;;12619098;28;20051;-81
2024/02/03 14:01:48;;;;;;;156.32;147.93;;;10.20;99.90;;;;;;12646075;28;20059;-80
2024/02/03 14:07:50;;;;;;;144.07;136.32;;;10.30;99.90;;;;;;12631513;28;20178;-80
2024/02/03 14:13:51;;;;;;;142.15;134.50;;;10.30;99.90;;;;;;12631294;28;20550;-80
2024/02/03 14:19:53;;;;;;;138.18;130.52;;;10.30;99.90;;;;;;12644023;28;20055;-79
2024/02/03 14:25:55;;;;;;;144.43;136.40;;;10.40;99.90;;;;;;12619663;28;20543;-79
2024/02/03 14:31:58;;;;;;;135.52;128.43;;;10.40;99.90;;;;;;12629715;28;20052;-82
2024/02/03 14:38:00;;;;;;;151.02;142.80;;;10.40;99.90;;;;;;12626199;28;20420;-80
2024/02/03 14:44:02;;;;;;;152.13;143.90;;;10.50;99.90;;;;;;12602726;28;20053;-81
2024/02/03 14:50:05;;;;;;;135.27;128.07;;;10.40;99.90;;;;;;12633780;28;20051;-78
2024/02/03 14:56:07;;;;;;;147.85;140.00;;;10.50;99.90;;;;;;12607140;28;20419;-80
2024/02/03 15:02:09;;;;;;;138.15;130.65;;;10.50;99.90;;;;;;12623655;28;20052;-80
2024/02/03 15:08:10;;;;;;;144.60;136.88;;;10.40;99.90;;;;;;12643733;28;20059;-78
2024/02/03 15:14:12;;;;;;;145.93;138.45;;;10.40;99.90;;;;;;12617518;28;20075;-83
2024/02/03 15:20:16;;;;;;;138.25;131.00;;;10.30;99.90;;;;;;12644855;28;20316;-79
2024/02/03 15:26:18;;;;;;;141.07;134.03;;;10.30;99.90;;;;;;12656995;28;20522;-81
2024/02/03 15:32:20;;;;;;;144.90;137.50;;;10.30;99.90;;;;;;12611047;28;20361;-81
2024/02/03 15:38:22;;;;;;;150.18;142.55;;;10.30;99.90;;;;;;12597884;28;20052;-80
2024/02/03 15:44:27;;;;;;;132.73;126.07;;;10.20;99.90;;;;;;12598099;28;20055;-81
2024/02/03 15:50:42;;;;;;;135.70;128.60;;;10.20;99.90;;;;;;12611989;28;20056;-80
2024/02/03 15:56:46;;;;;;;135.23;128.50;;;10.20;99.90;;;;;;12574880;28;20044;-80
2024/02/03 16:02:48;;;;;;;;;;;10.20;99.90;;;;;;12611768;28;20059;-80
2024/02/03 16:08:50;;;;;;;160.75;152.38;;;10.10;99.90;;;;;;12610024;28;19920;-81
2024/02/03 16:14:52;;;;;;;158.00;149.75;;;10.10;99.90;;;;;;12593762;28;20049;-81
2024/02/03 16:20:55;;;;;;;172.70;163.68;;;10.10;99.90;;;;;;12602652;28;20058;-82
2024/02/03 16:27:00;;;;;;;178.38;169.10;;;10.10;99.90;;;;;;12633381;28;20056;-82
2024/02/03 16:33:03;;;;;;;167.07;158.30;;;10.00;99.90;;;;;;12599246;28;20056;-80
2024/02/03 16:39:05;;;;;;;164.48;155.88;;;10.10;99.90;;;;;;12606014;28;20601;-81
2024/02/03 16:45:08;;;;;;;155.10;147.15;;;10.00;99.90;;;;;;12603243;28;20427;-82
2024/02/03 16:51:10;;;;;;;169.52;160.68;;;10.10;99.90;;;;;;12611399;28;20093;-81
2024/02/03 16:57:12;;;;;;;172.45;163.55;;;10.10;99.90;;;;;;12579342;28;20060;-80
2024/02/03 17:03:14;;;;;;;172.05;163.18;;;10.00;99.90;;;;;;12572206;28;20057;-79
2024/02/03 17:09:17;;;;;;;180.90;171.68;;;9.90;99.90;;;;;;12568727;28;20064;-79
2024/02/03 17:15:19;;;;;;;186.35;176.75;;;9.90;99.90;;;;;;12561143;28;20060;-80
2024/02/03 17:21:21;;;;;;;217.07;206.15;;;9.90;99.90;;;;;;12608203;28;20056;-80
2024/02/03 17:27:23;;;;;;;209.93;199.27;;;9.90;99.90;;;;;;12585484;28;20504;-80
2024/02/03 17:33:27;;;;;;;205.52;195.05;;;9.80;99.90;;;;;;12574821;28;20070;-79
2024/02/03 17:39:29;;;;;;;215.75;204.65;;;9.90;99.90;;;;;;12590174;28;20053;-81
2024/02/03 17:45:31;;;;;;;208.57;197.80;;;9.90;99.90;;;;;;12612060;28;20044;-84
2024/02/03 17:51:34;;;;;;;189.50;179.82;;;9.80;99.90;;;;;;12568973;28;20085;-84
2024/02/03 17:57:36;;;;;;;200.48;190.20;;;9.80;99.90;;;;;;12554563;28;20053;-83
2024/02/03 18:03:38;;;;;;;178.52;169.35;;;9.80;99.90;;;;;;12551259;28;20426;-79
2024/02/03 18:09:40;;;;;;;190.90;180.90;;;9.70;99.90;;;;;;12565947;28;20480;-79
2024/02/03 18:15:42;;;;;;;163.18;154.18;;;9.80;99.90;;;;;;12546024;28;20481;-80
2024/02/03 18:21:44;;;;;;;153.43;145.32;;;9.80;99.90;;;;;;12570317;28;20056;-80
2024/02/03 18:27:46;;;;;;;142.85;135.25;;;9.80;99.90;;;;;;12576126;28;20053;-80
2024/02/03 18:33:48;;;;;;;151.48;143.35;;;9.80;99.90;;;;;;12568156;28;20052;-80
2024/02/03 18:39:50;;;;;;;164.30;155.52;;;9.80;99.90;;;;;;12550962;28;20053;-79
2024/02/03 18:45:55;;;;;;;168.90;159.57;;;9.70;99.90;;;;;;12572765;28;20076;-81
2024/02/03 18:51:57;;;;;;;164.43;155.35;;;9.70;99.90;;;;;;12557798;28;20044;-81
2024/02/03 18:57:59;;;;;;;168.77;159.75;;;9.70;99.90;;;;;;12597960;28;20062;-80
2024/02/03 19:04:01;;;;;;;178.60;169.00;;;9.70;99.90;;;;;;12631768;28;20055;-79
2024/02/03 19:10:03;;;;;;;195.00;184.68;;;9.70;99.90;;;;;;12605657;28;20066;-81
2024/02/03 19:16:06;;;;;;;194.25;183.75;;;9.70;99.90;;;;;;12605721;28;20059;-79
2024/02/03 19:22:09;;;;;;;197.70;187.20;;;9.70;99.90;;;;;;12612336;28;20059;-79
2024/02/03 19:28:11;;;;;;;196.38;185.57;;;9.70;99.90;;;;;;12605239;28;20049;-78
2024/02/03 19:34:12;;;;;;;185.57;175.80;;;9.70;99.90;;;;;;12629605;28;20040;-77
2024/02/03 19:40:16;;;;;;;151.27;143.05;;;9.70;99.90;;;;;;12624015;28;20060;-79
2024/02/03 19:46:18;;;;;;;144.00;136.25;;;9.70;99.90;;;;;;12617946;28;20063;-79
2024/02/03 19:52:20;;;;;;;143.23;135.55;;;9.80;99.90;;;;;;12633528;28;20060;-79
2024/02/03 19:58:22;;;;;;;130.57;123.40;;;9.70;99.90;;;;;;12634646;28;20390;-79
2024/02/03 20:04:24;;;;;;;146.70;138.77;;;9.70;99.90;;;;;;12611949;28;20068;-79
2024/02/03 20:10:28;;;;;;;150.88;142.77;;;9.70;99.90;;;;;;12631875;28;20516;-79
2024/02/03 20:16:30;;;;;;;164.93;156.02;;;9.60;99.90;;;;;;12628448;28;20539;-80
2024/02/03 20:22:32;;;;;;;151.68;143.35;;;9.50;99.90;;;;;;12624116;28;20055;-78
2024/02/03 20:28:36;;;;;;;145.15;137.45;;;9.40;99.90;;;;;;12604180;28;20500;-83
2024/02/03 20:34:40;;;;;;;134.43;127.13;;;9.40;99.90;;;;;;12610695;28;20044;-81
2024/02/03 20:40:42;;;;;;;126.93;120.07;;;9.40;99.90;;;;;;12621364;28;20051;-79
2024/02/03 20:46:50;;;;;;;124.40;117.10;;;9.40;99.90;;;;;;12627588;28;20051;-84
2024/02/03 20:52:52;;;;;;;111.63;105.63;;;9.30;99.90;;;;;;12582656;28;20044;-83
2024/02/03 20:58:54;;;;;;;102.45;97.13;;;9.40;99.90;;;;;;12606908;28;20044;-83
2024/02/03 21:04:56;;;;;;;88.95;84.20;;;9.30;99.90;;;;;;12597344;28;20062;-83
2024/02/03 21:10:58;;;;;;;96.40;91.05;;;9.30;99.90;;;;;;12595745;28;20470;-84
2024/02/03 21:17:00;;;;;;;104.72;98.47;;;9.30;99.90;;;;;;12606574;28;20051;-83
2024/02/03 21:23:03;;;;;;;91.82;87.13;;;9.30;99.90;;;;;;12609369;28;20190;-83
2024/02/03 21:29:05;;;;;;;88.93;84.32;;;9.20;99.90;;;;;;12604135;28;20045;-84
2024/02/03 21:35:07;;;;;;;103.38;98.05;;;9.20;99.90;;;;;;12584846;28;20049;-83
2024/02/03 21:41:09;;;;;;;128.48;121.50;;;9.20;99.90;;;;;;12584331;28;20756;-83
2024/02/03 21:47:11;;;;;;;121.97;115.57;;;9.20;99.90;;;;;;12601030;28;20072;-84
2024/02/03 21:53:13;;;;;;;102.30;96.68;;;9.20;99.90;;;;;;12621950;28;20538;-83
2024/02/03 21:59:15;;;;;;;126.88;120.18;;;9.30;99.90;;;;;;12610627;28;20053;-82
2024/02/03 22:05:17;;;;;;;141.82;134.32;;;9.30;99.90;;;;;;12595960;28;20052;-84
2024/02/03 22:11:18;;;;;;;154.98;146.45;;;9.20;99.90;;;;;;12597479;28;20104;-82
2024/02/03 22:17:20;;;;;;;155.70;147.15;;;9.10;99.90;;;;;;12607632;28;20048;-83
2024/02/03 22:23:24;;;;;;;178.05;168.57;;;9.10;99.90;;;;;;12603800;28;20056;-82
2024/02/03 22:29:28;;;;;;;172.00;162.68;;;9.10;99.90;;;;;;12615185;28;20141;-83
2024/02/03 22:35:35;;;;;;;168.15;159.10;;;9.10;99.90;;;;;;12582756;28;20048;-83
2024/02/03 22:41:39;;;;;;;154.07;145.60;;;9.00;99.90;;;;;;12605421;28;20048;-83
2024/02/03 22:47:40;;;;;;;181.40;171.60;;;9.10;99.90;;;;;;12620490;28;20139;-82
2024/02/03 22:53:42;;;;;;;180.73;171.05;;;9.10;99.90;;;;;;12584914;28;20044;-83
2024/02/03 22:59:44;;;;;;;183.57;173.25;;;9.10;99.90;;;;;;12590249;28;20055;-82
2024/02/03 23:05:46;;;;;;;178.48;168.70;;;9.20;99.90;;;;;;12624951;28;20492;-83
2024/02/03 23:11:48;;;;;;;178.02;168.43;;;9.10;99.90;;;;;;12589250;28;20048;-83
2024/02/03 23:17:50;;;;;;;185.25;174.90;;;9.10;99.90;;;;;;12648528;28;20055;-82
2024/02/03 23:23:53;;;;;;;182.80;172.73;;;9.10;99.90;;;;;;12654014;28;20040;-80
2024/02/03 23:29:55;;;;;;;187.20;176.93;;;9.00;99.90;;;;;;12608050;28;20063;-83
2024/02/03 23:35:57;;;;;;;154.35;145.85;;;9.10;99.90;;;;;;12611781;28;20507;-82
2024/02/03 23:41:58;;;;;;;156.73;147.85;;;9.10;99.90;;;;;;12614885;28;20067;-81
2024/02/03 23:48:00;;;;;;;151.80;143.35;;;9.10;99.90;;;;;;12612773;28;20052;-82
2024/02/03 23:54:07;;;;;;;152.40;143.25;;;9.00;99.90;;;;;;12621870;28;20090;-82
